sensor_id;sensor_type;location;lat;lon;timestamp;temperature;humidity
23618;DHT22;18207;32.078;34.818;2022-08-24T00:02:27;32.60;43.30
23618;DHT22;18207;32.078;34.818;2022-08-24T00:04:59;32.50;43.20
23618;DHT22;18207;32.078;34.818;2022-08-24T00:07:30;32.50;43.20
23618;DHT22;18207;32.078;34.818;2022-08-24T00:10:02;32.50;43.20
23618;DHT22;18207;32.078;34.818;2022-08-24T00:12:35;32.50;43.20
23618;DHT22;18207;32.078;34.818;2022-08-24T00:15:11;32.50;43.20
23618;DHT22;18207;32.078;34.818;2022-08-24T00:17:43;32.50;43.10
23618;DHT22;18207;32.078;34.818;2022-08-24T00:20:14;32.40;43.10
23618;DHT22;18207;32.078;34.818;2022-08-24T00:22:46;32.40;43.10
23618;DHT22;18207;32.078;34.818;2022-08-24T00:25:17;32.40;43.20
23618;DHT22;18207;32.078;34.818;2022-08-24T00:27:48;32.30;43.10
23618;DHT22;18207;32.078;34.818;2022-08-24T00:30:21;32.30;43.20
23618;DHT22;18207;32.078;34.818;2022-08-24T00:32:52;32.30;43.20
23618;DHT22;18207;32.078;34.818;2022-08-24T00:35:23;32.30;43.20
23618;DHT22;18207;32.078;34.818;2022-08-24T00:37:59;32.30;43.20
23618;DHT22;18207;32.078;34.818;2022-08-24T00:40:32;32.30;43.20
23618;DHT22;18207;32.078;34.818;2022-08-24T00:43:07;32.30;43.30
23618;DHT22;18207;32.078;34.818;2022-08-24T00:45:45;32.30;43.30
23618;DHT22;18207;32.078;34.818;2022-08-24T00:48:22;32.30;43.20
23618;DHT22;18207;32.078;34.818;2022-08-24T00:50:58;32.20;43.20
23618;DHT22;18207;32.078;34.818;2022-08-24T00:53:35;32.20;43.30
23618;DHT22;18207;32.078;34.818;2022-08-24T00:56:10;32.20;43.30
23618;DHT22;18207;32.078;34.818;2022-08-24T00:58:55;32.20;43.30
23618;DHT22;18207;32.078;34.818;2022-08-24T01:01:33;32.20;43.30
23618;DHT22;18207;32.078;34.818;2022-08-24T01:04:08;32.20;43.30
23618;DHT22;18207;32.078;34.818;2022-08-24T01:06:43;32.20;43.30
23618;DHT22;18207;32.078;34.818;2022-08-24T01:09:15;32.20;43.30
23618;DHT22;18207;32.078;34.818;2022-08-24T01:11:46;32.10;43.30
23618;DHT22;18207;32.078;34.818;2022-08-24T01:14:19;32.10;43.60
23618;DHT22;18207;32.078;34.818;2022-08-24T01:16:55;32.10;43.30
23618;DHT22;18207;32.078;34.818;2022-08-24T01:19:43;32.10;43.30
23618;DHT22;18207;32.078;34.818;2022-08-24T01:22:24;32.00;43.30
23618;DHT22;18207;32.078;34.818;2022-08-24T01:25:08;32.00;43.30
23618;DHT22;18207;32.078;34.818;2022-08-24T01:27:40;32.10;43.40
23618;DHT22;18207;32.078;34.818;2022-08-24T01:30:14;32.00;43.30
23618;DHT22;18207;32.078;34.818;2022-08-24T01:32:58;32.00;43.30
23618;DHT22;18207;32.078;34.818;2022-08-24T01:35:31;32.00;43.30
23618;DHT22;18207;32.078;34.818;2022-08-24T01:38:06;32.00;43.30
23618;DHT22;18207;32.078;34.818;2022-08-24T01:40:43;32.00;43.30
23618;DHT22;18207;32.078;34.818;2022-08-24T01:43:17;32.00;43.30
23618;DHT22;18207;32.078;34.818;2022-08-24T01:45:48;32.00;43.30
23618;DHT22;18207;32.078;34.818;2022-08-24T01:48:20;32.00;43.40
23618;DHT22;18207;32.078;34.818;2022-08-24T01:50:51;31.90;43.40
23618;DHT22;18207;32.078;34.818;2022-08-24T01:53:22;32.00;43.50
23618;DHT22;18207;32.078;34.818;2022-08-24T01:55:55;31.90;43.50
23618;DHT22;18207;32.078;34.818;2022-08-24T01:58:26;31.90;43.50
23618;DHT22;18207;32.078;34.818;2022-08-24T02:00:56;31.90;43.40
23618;DHT22;18207;32.078;34.818;2022-08-24T02:03:27;31.90;43.50
23618;DHT22;18207;32.078;34.818;2022-08-24T02:05:58;31.90;43.40
23618;DHT22;18207;32.078;34.818;2022-08-24T02:08:30;31.90;43.50
23618;DHT22;18207;32.078;34.818;2022-08-24T02:11:05;31.90;43.50
23618;DHT22;18207;32.078;34.818;2022-08-24T02:13:39;31.90;43.60
23618;DHT22;18207;32.078;34.818;2022-08-24T02:16:11;31.80;43.50
23618;DHT22;18207;32.078;34.818;2022-08-24T02:18:42;31.90;43.60
23618;DHT22;18207;32.078;34.818;2022-08-24T02:21:14;31.90;43.60
23618;DHT22;18207;32.078;34.818;2022-08-24T02:23:45;31.80;43.50
23618;DHT22;18207;32.078;34.818;2022-08-24T02:26:18;31.80;43.60
23618;DHT22;18207;32.078;34.818;2022-08-24T02:28:52;31.90;43.60
23618;DHT22;18207;32.078;34.818;2022-08-24T02:31:25;31.90;43.60
23618;DHT22;18207;32.078;34.818;2022-08-24T02:33:56;31.80;43.50
23618;DHT22;18207;32.078;34.818;2022-08-24T02:36:27;31.90;43.60
23618;DHT22;18207;32.078;34.818;2022-08-24T02:38:58;31.90;43.60
23618;DHT22;18207;32.078;34.818;2022-08-24T02:41:31;31.80;43.60
23618;DHT22;18207;32.078;34.818;2022-08-24T02:44:02;31.80;43.60
23618;DHT22;18207;32.078;34.818;2022-08-24T02:47:05;31.80;43.60
23618;DHT22;18207;32.078;34.818;2022-08-24T02:49:44;31.80;43.60
23618;DHT22;18207;32.078;34.818;2022-08-24T02:52:15;31.80;43.50
23618;DHT22;18207;32.078;34.818;2022-08-24T02:54:45;31.80;43.60
23618;DHT22;18207;32.078;34.818;2022-08-24T02:57:19;31.80;43.60
23618;DHT22;18207;32.078;34.818;2022-08-24T02:59:50;31.80;43.60
23618;DHT22;18207;32.078;34.818;2022-08-24T03:02:21;31.80;43.60
23618;DHT22;18207;32.078;34.818;2022-08-24T03:04:52;31.80;43.60
23618;DHT22;18207;32.078;34.818;2022-08-24T03:07:23;31.80;43.50
23618;DHT22;18207;32.078;34.818;2022-08-24T03:09:54;31.70;43.50
23618;DHT22;18207;32.078;34.818;2022-08-24T03:12:27;31.70;43.50
23618;DHT22;18207;32.078;34.818;2022-08-24T03:14:57;31.60;43.50
23618;DHT22;18207;32.078;34.818;2022-08-24T03:17:29;31.60;43.60
23618;DHT22;18207;32.078;34.818;2022-08-24T03:20:00;31.60;43.60
23618;DHT22;18207;32.078;34.818;2022-08-24T03:22:34;31.60;43.60
23618;DHT22;18207;32.078;34.818;2022-08-24T03:25:05;31.60;43.60
23618;DHT22;18207;32.078;34.818;2022-08-24T03:27:39;31.50;43.70
23618;DHT22;18207;32.078;34.818;2022-08-24T03:30:13;31.50;43.80
23618;DHT22;18207;32.078;34.818;2022-08-24T03:32:44;31.50;43.80
23618;DHT22;18207;32.078;34.818;2022-08-24T03:35:16;31.50;43.80
23618;DHT22;18207;32.078;34.818;2022-08-24T03:37:49;31.50;43.90
23618;DHT22;18207;32.078;34.818;2022-08-24T03:40:21;31.50;43.90
23618;DHT22;18207;32.078;34.818;2022-08-24T03:42:54;31.50;43.90
23618;DHT22;18207;32.078;34.818;2022-08-24T03:45:25;31.50;43.90
23618;DHT22;18207;32.078;34.818;2022-08-24T03:47:57;31.50;43.90
23618;DHT22;18207;32.078;34.818;2022-08-24T03:50:28;31.50;43.90
23618;DHT22;18207;32.078;34.818;2022-08-24T03:52:59;31.50;43.90
23618;DHT22;18207;32.078;34.818;2022-08-24T03:55:29;31.50;44.00
23618;DHT22;18207;32.078;34.818;2022-08-24T03:58:03;31.50;44.00
23618;DHT22;18207;32.078;34.818;2022-08-24T04:00:33;31.50;44.10
23618;DHT22;18207;32.078;34.818;2022-08-24T04:03:04;31.50;44.00
23618;DHT22;18207;32.078;34.818;2022-08-24T04:05:35;31.50;44.00
23618;DHT22;18207;32.078;34.818;2022-08-24T04:08:07;31.50;43.90
23618;DHT22;18207;32.078;34.818;2022-08-24T04:10:44;31.50;43.90
23618;DHT22;18207;32.078;34.818;2022-08-24T04:13:17;31.40;43.90
23618;DHT22;18207;32.078;34.818;2022-08-24T04:15:47;31.50;44.10
23618;DHT22;18207;32.078;34.818;2022-08-24T04:18:20;31.50;44.10
23618;DHT22;18207;32.078;34.818;2022-08-24T04:20:54;31.40;44.00
23618;DHT22;18207;32.078;34.818;2022-08-24T04:23:25;31.40;44.10
23618;DHT22;18207;32.078;34.818;2022-08-24T04:26:14;31.40;44.20
23618;DHT22;18207;32.078;34.818;2022-08-24T04:29:09;31.40;44.20
23618;DHT22;18207;32.078;34.818;2022-08-24T04:31:41;31.40;44.20
23618;DHT22;18207;32.078;34.818;2022-08-24T04:34:14;31.40;44.20
23618;DHT22;18207;32.078;34.818;2022-08-24T04:36:45;31.40;44.30
23618;DHT22;18207;32.078;34.818;2022-08-24T04:39:16;31.40;44.30
23618;DHT22;18207;32.078;34.818;2022-08-24T04:41:46;31.50;44.30
23618;DHT22;18207;32.078;34.818;2022-08-24T04:44:19;31.40;44.30
23618;DHT22;18207;32.078;34.818;2022-08-24T04:46:50;31.50;44.30
23618;DHT22;18207;32.078;34.818;2022-08-24T04:49:20;31.50;44.30
23618;DHT22;18207;32.078;34.818;2022-08-24T04:51:51;31.50;44.40
23618;DHT22;18207;32.078;34.818;2022-08-24T04:54:22;31.50;44.30
23618;DHT22;18207;32.078;34.818;2022-08-24T04:56:54;31.60;44.40
23618;DHT22;18207;32.078;34.818;2022-08-24T04:59:26;31.60;44.40
23618;DHT22;18207;32.078;34.818;2022-08-24T05:01:58;31.60;44.40
23618;DHT22;18207;32.078;34.818;2022-08-24T05:04:28;31.70;44.50
23618;DHT22;18207;32.078;34.818;2022-08-24T05:06:59;31.70;44.40
23618;DHT22;18207;32.078;34.818;2022-08-24T05:09:31;31.70;44.40
23618;DHT22;18207;32.078;34.818;2022-08-24T05:12:02;31.70;44.30
23618;DHT22;18207;32.078;34.818;2022-08-24T05:14:35;31.80;44.30
23618;DHT22;18207;32.078;34.818;2022-08-24T05:17:06;31.80;44.30
23618;DHT22;18207;32.078;34.818;2022-08-24T05:19:37;31.90;44.40
23618;DHT22;18207;32.078;34.818;2022-08-24T05:22:07;31.90;44.30
23618;DHT22;18207;32.078;34.818;2022-08-24T05:24:38;32.00;44.30
23618;DHT22;18207;32.078;34.818;2022-08-24T05:27:09;32.00;44.20
23618;DHT22;18207;32.078;34.818;2022-08-24T05:29:42;32.10;44.30
23618;DHT22;18207;32.078;34.818;2022-08-24T05:32:16;32.10;44.30
23618;DHT22;18207;32.078;34.818;2022-08-24T05:34:46;32.20;44.20
23618;DHT22;18207;32.078;34.818;2022-08-24T05:37:17;32.20;44.20
23618;DHT22;18207;32.078;34.818;2022-08-24T05:39:48;32.20;44.10
23618;DHT22;18207;32.078;34.818;2022-08-24T05:42:18;32.30;44.10
23618;DHT22;18207;32.078;34.818;2022-08-24T05:44:50;32.40;44.10
23618;DHT22;18207;32.078;34.818;2022-08-24T05:47:20;32.40;43.90
23618;DHT22;18207;32.078;34.818;2022-08-24T05:49:52;32.50;44.00
23618;DHT22;18207;32.078;34.818;2022-08-24T05:52:22;32.50;43.90
23618;DHT22;18207;32.078;34.818;2022-08-24T05:54:55;32.50;43.80
23618;DHT22;18207;32.078;34.818;2022-08-24T05:57:33;32.60;43.90
23618;DHT22;18207;32.078;34.818;2022-08-24T06:00:08;32.60;43.80
23618;DHT22;18207;32.078;34.818;2022-08-24T06:02:41;32.70;43.80
23618;DHT22;18207;32.078;34.818;2022-08-24T06:05:12;32.70;43.80
23618;DHT22;18207;32.078;34.818;2022-08-24T06:07:42;32.70;43.80
23618;DHT22;18207;32.078;34.818;2022-08-24T06:10:13;32.80;43.80
23618;DHT22;18207;32.078;34.818;2022-08-24T06:13:02;32.90;43.80
23618;DHT22;18207;32.078;34.818;2022-08-24T06:15:37;32.90;43.60
23618;DHT22;18207;32.078;34.818;2022-08-24T06:18:17;32.90;43.60
23618;DHT22;18207;32.078;34.818;2022-08-24T06:20:47;33.00;43.60
23618;DHT22;18207;32.078;34.818;2022-08-24T06:23:24;33.00;43.50
23618;DHT22;18207;32.078;34.818;2022-08-24T06:25:57;33.10;43.40
23618;DHT22;18207;32.078;34.818;2022-08-24T06:28:49;33.10;43.30
23618;DHT22;18207;32.078;34.818;2022-08-24T06:31:23;33.20;43.30
23618;DHT22;18207;32.078;34.818;2022-08-24T06:33:54;33.30;43.30
23618;DHT22;18207;32.078;34.818;2022-08-24T06:36:25;33.30;43.20
23618;DHT22;18207;32.078;34.818;2022-08-24T06:38:56;33.40;43.30
23618;DHT22;18207;32.078;34.818;2022-08-24T06:41:27;33.40;43.30
23618;DHT22;18207;32.078;34.818;2022-08-24T06:43:58;33.50;43.30
23618;DHT22;18207;32.078;34.818;2022-08-24T06:46:32;33.60;43.40
23618;DHT22;18207;32.078;34.818;2022-08-24T06:49:04;33.60;43.20
23618;DHT22;18207;32.078;34.818;2022-08-24T06:51:38;33.70;43.30
23618;DHT22;18207;32.078;34.818;2022-08-24T06:54:17;33.70;43.10
23618;DHT22;18207;32.078;34.818;2022-08-24T06:56:49;33.80;43.00
23618;DHT22;18207;32.078;34.818;2022-08-24T06:59:20;33.80;43.00
23618;DHT22;18207;32.078;34.818;2022-08-24T07:01:56;33.90;42.90
23618;DHT22;18207;32.078;34.818;2022-08-24T07:04:28;34.00;42.80
23618;DHT22;18207;32.078;34.818;2022-08-24T07:06:58;34.00;42.70
23618;DHT22;18207;32.078;34.818;2022-08-24T07:09:30;34.00;42.60
23618;DHT22;18207;32.078;34.818;2022-08-24T07:12:02;34.10;42.60
23618;DHT22;18207;32.078;34.818;2022-08-24T07:14:33;34.10;42.60
23618;DHT22;18207;32.078;34.818;2022-08-24T07:17:06;34.20;42.50
23618;DHT22;18207;32.078;34.818;2022-08-24T07:19:36;34.20;42.40
23618;DHT22;18207;32.078;34.818;2022-08-24T07:22:08;34.20;42.40
23618;DHT22;18207;32.078;34.818;2022-08-24T07:24:39;34.30;42.30
23618;DHT22;18207;32.078;34.818;2022-08-24T07:27:10;34.30;42.30
23618;DHT22;18207;32.078;34.818;2022-08-24T07:29:41;34.40;42.30
23618;DHT22;18207;32.078;34.818;2022-08-24T07:32:28;34.40;42.20
23618;DHT22;18207;32.078;34.818;2022-08-24T07:34:59;34.50;42.20
23618;DHT22;18207;32.078;34.818;2022-08-24T07:37:30;34.50;42.10
23618;DHT22;18207;32.078;34.818;2022-08-24T07:40:08;34.60;42.10
23618;DHT22;18207;32.078;34.818;2022-08-24T07:42:41;34.70;42.10
23618;DHT22;18207;32.078;34.818;2022-08-24T07:45:12;34.70;41.90
23618;DHT22;18207;32.078;34.818;2022-08-24T07:47:45;34.80;41.80
23618;DHT22;18207;32.078;34.818;2022-08-24T07:50:22;34.80;41.70
23618;DHT22;18207;32.078;34.818;2022-08-24T07:52:53;34.90;41.60
23618;DHT22;18207;32.078;34.818;2022-08-24T07:55:24;34.90;41.50
23618;DHT22;18207;32.078;34.818;2022-08-24T07:57:59;35.00;41.50
23618;DHT22;18207;32.078;34.818;2022-08-24T08:00:29;35.10;41.50
23618;DHT22;18207;32.078;34.818;2022-08-24T08:03:03;35.10;41.40
23618;DHT22;18207;32.078;34.818;2022-08-24T08:05:38;35.20;41.40
23618;DHT22;18207;32.078;34.818;2022-08-24T08:08:10;35.20;41.20
23618;DHT22;18207;32.078;34.818;2022-08-24T08:10:41;35.30;41.20
23618;DHT22;18207;32.078;34.818;2022-08-24T08:13:12;35.30;41.20
23618;DHT22;18207;32.078;34.818;2022-08-24T08:15:43;35.40;41.20
23618;DHT22;18207;32.078;34.818;2022-08-24T08:18:17;35.40;41.10
23618;DHT22;18207;32.078;34.818;2022-08-24T08:20:48;35.50;41.10
23618;DHT22;18207;32.078;34.818;2022-08-24T08:23:20;35.50;41.00
23618;DHT22;18207;32.078;34.818;2022-08-24T08:26:12;35.60;40.90
23618;DHT22;18207;32.078;34.818;2022-08-24T08:28:44;35.60;40.90
23618;DHT22;18207;32.078;34.818;2022-08-24T08:31:15;35.60;40.90
23618;DHT22;18207;32.078;34.818;2022-08-24T08:33:53;35.70;40.90
23618;DHT22;18207;32.078;34.818;2022-08-24T08:36:25;35.70;40.80
23618;DHT22;18207;32.078;34.818;2022-08-24T08:38:56;35.80;40.90
23618;DHT22;18207;32.078;34.818;2022-08-24T08:41:56;35.80;40.90
23618;DHT22;18207;32.078;34.818;2022-08-24T08:54:37;35.90;40.50
23618;DHT22;18207;32.078;34.818;2022-08-24T08:57:30;36.00;40.50
23618;DHT22;18207;32.078;34.818;2022-08-24T09:00:15;36.00;40.40
23618;DHT22;18207;32.078;34.818;2022-08-24T09:03:19;36.00;40.60
23618;DHT22;18207;32.078;34.818;2022-08-24T09:06:23;36.00;40.30
23618;DHT22;18207;32.078;34.818;2022-08-24T09:09:40;36.00;40.30
23618;DHT22;18207;32.078;34.818;2022-08-24T09:12:35;36.00;40.30
23618;DHT22;18207;32.078;34.818;2022-08-24T09:15:36;36.10;40.30
23618;DHT22;18207;32.078;34.818;2022-08-24T09:18:37;36.00;40.30
23618;DHT22;18207;32.078;34.818;2022-08-24T09:21:40;36.10;40.30
23618;DHT22;18207;32.078;34.818;2022-08-24T09:24:38;36.00;40.10
23618;DHT22;18207;32.078;34.818;2022-08-24T09:27:29;36.10;40.20
23618;DHT22;18207;32.078;34.818;2022-08-24T09:30:10;36.10;40.10
23618;DHT22;18207;32.078;34.818;2022-08-24T09:32:56;36.10;40.20
23618;DHT22;18207;32.078;34.818;2022-08-24T09:35:34;36.10;40.10
23618;DHT22;18207;32.078;34.818;2022-08-24T09:38:47;36.00;40.10
23618;DHT22;18207;32.078;34.818;2022-08-24T09:48:38;36.10;40.00
23618;DHT22;18207;32.078;34.818;2022-08-24T09:55:07;36.10;39.90
23618;DHT22;18207;32.078;34.818;2022-08-24T09:58:07;36.10;39.90
23618;DHT22;18207;32.078;34.818;2022-08-24T10:00:47;36.10;40.00
23618;DHT22;18207;32.078;34.818;2022-08-24T10:03:31;36.00;40.00
23618;DHT22;18207;32.078;34.818;2022-08-24T10:06:48;36.10;40.00
23618;DHT22;18207;32.078;34.818;2022-08-24T10:09:51;36.10;39.90
23618;DHT22;18207;32.078;34.818;2022-08-24T10:12:53;36.00;39.80
23618;DHT22;18207;32.078;34.818;2022-08-24T10:15:37;36.00;39.90
23618;DHT22;18207;32.078;34.818;2022-08-24T10:18:32;36.00;39.90
23618;DHT22;18207;32.078;34.818;2022-08-24T10:21:23;36.00;39.90
23618;DHT22;18207;32.078;34.818;2022-08-24T10:24:24;36.00;39.70
23618;DHT22;18207;32.078;34.818;2022-08-24T10:27:35;36.00;39.60
23618;DHT22;18207;32.078;34.818;2022-08-24T10:30:46;35.90;39.60
23618;DHT22;18207;32.078;34.818;2022-08-24T10:33:47;35.90;39.70
23618;DHT22;18207;32.078;34.818;2022-08-24T10:36:47;35.90;39.90
23618;DHT22;18207;32.078;34.818;2022-08-24T10:40:03;35.90;39.90
23618;DHT22;18207;32.078;34.818;2022-08-24T10:43:33;35.90;40.00
23618;DHT22;18207;32.078;34.818;2022-08-24T10:46:43;35.90;40.00
23618;DHT22;18207;32.078;34.818;2022-08-24T10:50:04;35.90;40.00
23618;DHT22;18207;32.078;34.818;2022-08-24T10:52:57;35.90;40.00
23618;DHT22;18207;32.078;34.818;2022-08-24T10:55:41;35.90;40.00
23618;DHT22;18207;32.078;34.818;2022-08-24T10:58:43;35.90;40.10
23618;DHT22;18207;32.078;34.818;2022-08-24T11:01:22;35.90;40.00
23618;DHT22;18207;32.078;34.818;2022-08-24T11:03:59;35.90;40.00
23618;DHT22;18207;32.078;34.818;2022-08-24T11:06:36;35.80;40.00
23618;DHT22;18207;32.078;34.818;2022-08-24T11:09:12;35.80;40.00
23618;DHT22;18207;32.078;34.818;2022-08-24T11:11:47;35.80;40.10
23618;DHT22;18207;32.078;34.818;2022-08-24T11:14:35;35.80;40.20
23618;DHT22;18207;32.078;34.818;2022-08-24T11:17:14;35.80;40.20
23618;DHT22;18207;32.078;34.818;2022-08-24T11:19:48;35.80;40.10
23618;DHT22;18207;32.078;34.818;2022-08-24T11:22:35;35.80;40.20
23618;DHT22;18207;32.078;34.818;2022-08-24T11:25:15;35.80;40.20
23618;DHT22;18207;32.078;34.818;2022-08-24T11:27:51;35.80;40.20
23618;DHT22;18207;32.078;34.818;2022-08-24T11:30:31;35.80;40.20
23618;DHT22;18207;32.078;34.818;2022-08-24T11:33:25;35.80;40.20
23618;DHT22;18207;32.078;34.818;2022-08-24T11:36:00;35.70;40.30
23618;DHT22;18207;32.078;34.818;2022-08-24T11:38:32;35.70;40.30
23618;DHT22;18207;32.078;34.818;2022-08-24T11:41:09;35.70;40.30
23618;DHT22;18207;32.078;34.818;2022-08-24T11:43:56;35.80;40.40
23618;DHT22;18207;32.078;34.818;2022-08-24T11:46:38;35.70;40.40
23618;DHT22;18207;32.078;34.818;2022-08-24T11:49:17;35.60;40.30
23618;DHT22;18207;32.078;34.818;2022-08-24T11:51:58;35.60;40.30
23618;DHT22;18207;32.078;34.818;2022-08-24T11:54:37;35.60;40.30
23618;DHT22;18207;32.078;34.818;2022-08-24T11:57:16;35.60;40.40
23618;DHT22;18207;32.078;34.818;2022-08-24T11:59:56;35.60;40.50
23618;DHT22;18207;32.078;34.818;2022-08-24T12:02:40;35.60;40.50
23618;DHT22;18207;32.078;34.818;2022-08-24T12:05:25;35.50;40.50
23618;DHT22;18207;32.078;34.818;2022-08-24T12:08:09;35.50;40.60
23618;DHT22;18207;32.078;34.818;2022-08-24T12:10:53;35.50;40.60
23618;DHT22;18207;32.078;34.818;2022-08-24T12:13:37;35.40;40.50
23618;DHT22;18207;32.078;34.818;2022-08-24T12:16:20;35.40;40.60
23618;DHT22;18207;32.078;34.818;2022-08-24T12:19:05;35.40;40.60
23618;DHT22;18207;32.078;34.818;2022-08-24T12:21:42;35.40;40.60
23618;DHT22;18207;32.078;34.818;2022-08-24T12:24:24;35.40;40.70
23618;DHT22;18207;32.078;34.818;2022-08-24T12:27:03;35.40;40.50
23618;DHT22;18207;32.078;34.818;2022-08-24T12:29:41;35.30;40.40
23618;DHT22;18207;32.078;34.818;2022-08-24T12:32:18;35.40;40.50
23618;DHT22;18207;32.078;34.818;2022-08-24T12:34:59;35.40;40.50
23618;DHT22;18207;32.078;34.818;2022-08-24T12:37:36;35.30;40.40
23618;DHT22;18207;32.078;34.818;2022-08-24T12:40:20;35.40;40.40
23618;DHT22;18207;32.078;34.818;2022-08-24T12:43:02;35.30;40.30
23618;DHT22;18207;32.078;34.818;2022-08-24T12:45:35;35.30;40.40
23618;DHT22;18207;32.078;34.818;2022-08-24T12:48:13;35.30;40.30
23618;DHT22;18207;32.078;34.818;2022-08-24T12:51:05;35.30;40.30
23618;DHT22;18207;32.078;34.818;2022-08-24T12:54:02;35.20;40.30
23618;DHT22;18207;32.078;34.818;2022-08-24T12:57:09;35.20;40.30
23618;DHT22;18207;32.078;34.818;2022-08-24T12:59:47;35.20;40.30
23618;DHT22;18207;32.078;34.818;2022-08-24T13:02:32;35.30;40.40
23618;DHT22;18207;32.078;34.818;2022-08-24T13:05:16;35.20;40.30
23618;DHT22;18207;32.078;34.818;2022-08-24T13:07:52;35.20;40.30
23618;DHT22;18207;32.078;34.818;2022-08-24T13:10:41;35.10;40.20
23618;DHT22;18207;32.078;34.818;2022-08-24T13:13:40;35.10;40.30
23618;DHT22;18207;32.078;34.818;2022-08-24T13:16:43;35.10;40.30
23618;DHT22;18207;32.078;34.818;2022-08-24T13:19:31;35.10;40.30
23618;DHT22;18207;32.078;34.818;2022-08-24T13:22:44;35.10;40.20
23618;DHT22;18207;32.078;34.818;2022-08-24T13:25:42;35.00;40.10
23618;DHT22;18207;32.078;34.818;2022-08-24T13:28:40;35.00;39.90
23618;DHT22;18207;32.078;34.818;2022-08-24T13:31:30;35.00;40.00
23618;DHT22;18207;32.078;34.818;2022-08-24T13:34:36;35.00;40.20
23618;DHT22;18207;32.078;34.818;2022-08-24T13:37:14;34.90;40.30
23618;DHT22;18207;32.078;34.818;2022-08-24T13:39:59;34.90;40.30
23618;DHT22;18207;32.078;34.818;2022-08-24T13:43:11;34.80;40.30
23618;DHT22;18207;32.078;34.818;2022-08-24T13:45:51;34.80;40.40
23618;DHT22;18207;32.078;34.818;2022-08-24T13:48:44;34.80;40.50
23618;DHT22;18207;32.078;34.818;2022-08-24T13:51:34;34.80;40.30
23618;DHT22;18207;32.078;34.818;2022-08-24T13:54:20;34.70;40.40
23618;DHT22;18207;32.078;34.818;2022-08-24T13:57:08;34.70;40.60
23618;DHT22;18207;32.078;34.818;2022-08-24T14:00:10;34.70;40.60
23618;DHT22;18207;32.078;34.818;2022-08-24T14:03:18;34.60;40.60
23618;DHT22;18207;32.078;34.818;2022-08-24T14:06:23;34.60;40.70
23618;DHT22;18207;32.078;34.818;2022-08-24T14:09:24;34.60;40.70
23618;DHT22;18207;32.078;34.818;2022-08-24T14:12:15;34.60;40.70
23618;DHT22;18207;32.078;34.818;2022-08-24T14:15:05;34.60;40.50
23618;DHT22;18207;32.078;34.818;2022-08-24T14:17:47;34.50;40.60
23618;DHT22;18207;32.078;34.818;2022-08-24T14:20:46;34.50;40.80
23618;DHT22;18207;32.078;34.818;2022-08-24T14:23:33;34.50;40.80
23618;DHT22;18207;32.078;34.818;2022-08-24T14:26:59;34.50;40.90
23618;DHT22;18207;32.078;34.818;2022-08-24T14:29:36;34.50;41.00
23618;DHT22;18207;32.078;34.818;2022-08-24T14:32:36;34.40;40.90
23618;DHT22;18207;32.078;34.818;2022-08-24T14:35:27;34.40;40.90
23618;DHT22;18207;32.078;34.818;2022-08-24T14:41:30;34.40;41.70
23618;DHT22;18207;32.078;34.818;2022-08-24T14:44:44;34.30;41.10
23618;DHT22;18207;32.078;34.818;2022-08-24T14:47:49;34.30;41.10
23618;DHT22;18207;32.078;34.818;2022-08-24T14:50:36;34.30;41.20
23618;DHT22;18207;32.078;34.818;2022-08-24T14:53:30;34.30;41.20
23618;DHT22;18207;32.078;34.818;2022-08-24T14:56:21;34.20;41.20
23618;DHT22;18207;32.078;34.818;2022-08-24T14:59:16;34.30;41.30
23618;DHT22;18207;32.078;34.818;2022-08-24T15:02:44;34.20;41.30
23618;DHT22;18207;32.078;34.818;2022-08-24T15:05:39;34.20;41.40
23618;DHT22;18207;32.078;34.818;2022-08-24T15:08:34;34.20;41.40
23618;DHT22;18207;32.078;34.818;2022-08-24T15:11:12;34.10;41.40
23618;DHT22;18207;32.078;34.818;2022-08-24T15:13:49;34.10;41.50
23618;DHT22;18207;32.078;34.818;2022-08-24T15:16:32;34.20;41.60
23618;DHT22;18207;32.078;34.818;2022-08-24T15:19:29;34.10;41.60
23618;DHT22;18207;32.078;34.818;2022-08-24T15:22:18;34.10;41.70
23618;DHT22;18207;32.078;34.818;2022-08-24T15:24:59;34.10;41.70
23618;DHT22;18207;32.078;34.818;2022-08-24T15:27:42;34.10;41.80
23618;DHT22;18207;32.078;34.818;2022-08-24T15:30:23;34.00;41.80
23618;DHT22;18207;32.078;34.818;2022-08-24T15:33:04;34.10;41.90
23618;DHT22;18207;32.078;34.818;2022-08-24T15:35:48;34.10;42.00
23618;DHT22;18207;32.078;34.818;2022-08-24T15:38:22;34.00;42.00
23618;DHT22;18207;32.078;34.818;2022-08-24T15:41:04;34.00;42.00
23618;DHT22;18207;32.078;34.818;2022-08-24T15:43:43;34.00;42.10
23618;DHT22;18207;32.078;34.818;2022-08-24T15:46:19;34.00;42.00
23618;DHT22;18207;32.078;34.818;2022-08-24T15:48:58;34.00;42.00
23618;DHT22;18207;32.078;34.818;2022-08-24T15:51:43;34.00;42.20
23618;DHT22;18207;32.078;34.818;2022-08-24T15:54:31;34.00;42.20
23618;DHT22;18207;32.078;34.818;2022-08-24T15:57:09;33.90;42.20
23618;DHT22;18207;32.078;34.818;2022-08-24T16:00:07;33.90;42.20
23618;DHT22;18207;32.078;34.818;2022-08-24T16:02:40;33.90;42.40
23618;DHT22;18207;32.078;34.818;2022-08-24T16:05:15;33.90;42.30
23618;DHT22;18207;32.078;34.818;2022-08-24T16:08:05;33.90;42.40
23618;DHT22;18207;32.078;34.818;2022-08-24T16:10:42;33.90;42.50
23618;DHT22;18207;32.078;34.818;2022-08-24T16:13:24;33.90;42.50
23618;DHT22;18207;32.078;34.818;2022-08-24T16:16:00;33.80;42.50
23618;DHT22;18207;32.078;34.818;2022-08-24T16:18:47;33.80;42.40
23618;DHT22;18207;32.078;34.818;2022-08-24T16:21:23;33.80;42.30
23618;DHT22;18207;32.078;34.818;2022-08-24T16:24:06;33.70;42.30
23618;DHT22;18207;32.078;34.818;2022-08-24T16:26:56;33.70;42.30
23618;DHT22;18207;32.078;34.818;2022-08-24T16:29:51;33.70;42.30
23618;DHT22;18207;32.078;34.818;2022-08-24T16:32:24;33.60;42.20
23618;DHT22;18207;32.078;34.818;2022-08-24T16:35:15;33.70;42.30
23618;DHT22;18207;32.078;34.818;2022-08-24T16:37:49;33.60;42.30
23618;DHT22;18207;32.078;34.818;2022-08-24T16:40:23;33.60;42.40
23618;DHT22;18207;32.078;34.818;2022-08-24T16:42:57;33.60;42.50
23618;DHT22;18207;32.078;34.818;2022-08-24T16:45:27;33.50;42.30
23618;DHT22;18207;32.078;34.818;2022-08-24T16:48:02;33.50;42.50
23618;DHT22;18207;32.078;34.818;2022-08-24T16:50:33;33.50;42.50
23618;DHT22;18207;32.078;34.818;2022-08-24T16:53:04;33.40;42.40
23618;DHT22;18207;32.078;34.818;2022-08-24T16:55:37;33.40;42.50
23618;DHT22;18207;32.078;34.818;2022-08-24T16:58:08;33.40;42.40
23618;DHT22;18207;32.078;34.818;2022-08-24T17:00:40;33.30;42.50